createdAt,value
2024-02-06T00:00:08.732Z,10.80
2024-02-06T00:02:37.574Z,10.80
2024-02-06T00:05:07.260Z,10.80
2024-02-06T00:07:36.569Z,10.80
2024-02-06T00:10:04.779Z,10.70
2024-02-06T00:12:32.460Z,10.80
2024-02-06T00:15:00.198Z,10.70
2024-02-06T00:17:27.844Z,10.70
2024-02-06T00:19:56.536Z,10.70
2024-02-06T00:22:24.870Z,10.70
2024-02-06T00:24:52.893Z,10.70
2024-02-06T00:27:20.630Z,10.60
2024-02-06T00:29:53.086Z,10.70
2024-02-06T00:32:20.817Z,10.60
2024-02-06T00:34:49.723Z,10.60
2024-02-06T00:37:18.681Z,10.60
2024-02-06T00:39:46.574Z,10.60
2024-02-06T00:42:14.109Z,10.60
2024-02-06T00:44:42.517Z,10.60
2024-02-06T00:47:10.136Z,10.60
2024-02-06T00:49:38.029Z,10.60
2024-02-06T00:52:05.875Z,10.50
2024-02-06T00:54:33.473Z,10.50
2024-02-06T00:57:01.895Z,10.50
2024-02-06T00:59:30.441Z,10.50
2024-02-06T01:02:00.443Z,10.50
2024-02-06T01:04:29.017Z,10.50
2024-02-06T01:06:57.508Z,10.40
2024-02-06T01:09:25.139Z,10.40
2024-02-06T01:11:52.809Z,10.40
2024-02-06T01:14:20.888Z,10.40
2024-02-06T01:16:48.764Z,10.40
2024-02-06T01:19:16.477Z,10.30
2024-02-06T01:21:44.090Z,10.30
2024-02-06T01:24:12.016Z,10.30
2024-02-06T01:26:39.534Z,10.30
2024-02-06T01:29:07.195Z,10.30
2024-02-06T01:31:34.930Z,10.30
2024-02-06T01:34:03.047Z,10.30
2024-02-06T01:36:31.297Z,10.40
2024-02-06T01:38:59.097Z,10.40
2024-02-06T01:41:26.793Z,10.30
2024-02-06T01:43:54.783Z,10.40
2024-02-06T01:46:23.781Z,10.30
2024-02-06T01:48:52.125Z,10.30
2024-02-06T01:51:20.211Z,10.30
2024-02-06T01:53:48.581Z,10.30
2024-02-06T01:56:16.402Z,10.30
2024-02-06T01:58:44.636Z,10.30
2024-02-06T02:01:14.381Z,10.30
2024-02-06T02:03:43.121Z,10.30
2024-02-06T02:06:11.532Z,10.30
2024-02-06T02:08:39.404Z,10.30
2024-02-06T02:11:06.930Z,10.30
2024-02-06T02:13:35.733Z,10.30
2024-02-06T02:16:05.332Z,10.40
2024-02-06T02:18:33.829Z,10.30
2024-02-06T02:21:06.379Z,10.40
2024-02-06T02:23:33.965Z,10.30
2024-02-06T02:26:01.888Z,10.30
2024-02-06T02:28:29.759Z,10.30
2024-02-06T02:30:58.517Z,10.30
2024-02-06T02:33:28.447Z,10.30
2024-02-06T02:35:56.079Z,10.30
2024-02-06T02:38:24.137Z,10.30
2024-02-06T02:40:51.943Z,10.30
2024-02-06T02:43:20.053Z,10.30
2024-02-06T02:45:48.253Z,10.30
2024-02-06T02:48:16.958Z,10.30
2024-02-06T02:50:44.791Z,10.40
2024-02-06T02:53:12.508Z,10.40
2024-02-06T02:55:40.730Z,10.40
2024-02-06T02:58:08.401Z,10.40
2024-02-06T03:00:37.602Z,10.40
2024-02-06T03:03:05.448Z,10.40
2024-02-06T03:05:33.080Z,10.40
2024-02-06T03:08:00.812Z,10.40
2024-02-06T03:10:28.757Z,10.40
2024-02-06T03:12:56.705Z,10.40
2024-02-06T03:15:24.606Z,10.30
2024-02-06T03:17:55.560Z,10.30
2024-02-06T03:20:24.280Z,10.30
2024-02-06T03:22:52.140Z,10.30
2024-02-06T03:25:19.874Z,10.30
2024-02-06T03:27:48.488Z,10.30
2024-02-06T03:30:16.954Z,10.30
2024-02-06T03:32:44.849Z,10.30
2024-02-06T03:35:12.604Z,10.30
2024-02-06T03:37:40.475Z,10.20
2024-02-06T03:40:10.428Z,10.30
2024-02-06T03:42:39.018Z,10.30
2024-02-06T03:45:07.293Z,10.30
2024-02-06T03:47:35.057Z,10.30
2024-02-06T03:50:02.994Z,10.30
2024-02-06T03:52:31.996Z,10.20
2024-02-06T03:54:59.704Z,10.30
2024-02-06T03:57:27.836Z,10.20
2024-02-06T03:59:55.637Z,10.20
2024-02-06T04:02:23.864Z,10.20
2024-02-06T04:04:51.583Z,10.20
2024-02-06T04:07:19.595Z,10.20
2024-02-06T04:09:47.186Z,10.30
2024-02-06T04:12:15.172Z,10.30
2024-02-06T04:14:42.985Z,10.30
2024-02-06T04:17:10.839Z,10.20
2024-02-06T04:19:38.528Z,10.30
2024-02-06T04:22:06.712Z,10.20
2024-02-06T04:24:34.779Z,10.30
2024-02-06T04:27:02.472Z,10.30
2024-02-06T04:29:30.202Z,10.30
2024-02-06T04:31:57.754Z,10.20
2024-02-06T04:34:25.726Z,10.30
2024-02-06T04:36:53.965Z,10.30
2024-02-06T04:39:21.553Z,10.30
2024-02-06T04:41:50.159Z,10.30
2024-02-06T04:44:18.693Z,10.20
2024-02-06T04:46:46.808Z,10.30
2024-02-06T04:49:14.631Z,10.20
2024-02-06T04:51:42.334Z,10.20
2024-02-06T04:54:09.784Z,10.20
2024-02-06T04:56:37.264Z,10.20
2024-02-06T04:59:04.833Z,10.20
2024-02-06T05:01:35.426Z,10.20
2024-02-06T05:04:03.398Z,10.20
2024-02-06T05:06:32.035Z,10.10
2024-02-06T05:09:00.545Z,10.10
2024-02-06T05:11:28.222Z,10.10
2024-02-06T05:13:57.431Z,10.00
2024-02-06T05:16:24.997Z,10.00
2024-02-06T05:18:52.550Z,9.90
2024-02-06T05:21:20.138Z,9.90
2024-02-06T05:23:48.371Z,9.90
2024-02-06T05:26:16.782Z,9.90
2024-02-06T05:28:45.371Z,9.90
2024-02-06T05:31:12.995Z,9.90
2024-02-06T05:33:40.846Z,10.00
2024-02-06T05:36:08.682Z,10.00
2024-02-06T05:38:36.299Z,10.00
2024-02-06T05:41:04.746Z,10.00
2024-02-06T05:43:32.538Z,10.00
2024-02-06T05:46:00.695Z,10.00
2024-02-06T05:48:29.064Z,10.00
2024-02-06T05:50:56.672Z,10.00
2024-02-06T05:53:24.284Z,10.00
2024-02-06T05:55:52.715Z,10.10
2024-02-06T05:58:20.440Z,10.00
2024-02-06T06:00:48.882Z,10.00
2024-02-06T06:03:17.750Z,10.00
2024-02-06T06:05:45.619Z,9.90
2024-02-06T06:08:13.687Z,10.00
2024-02-06T06:10:41.457Z,10.00
2024-02-06T06:13:09.954Z,9.90
2024-02-06T06:15:38.499Z,9.90
2024-02-06T06:18:06.836Z,10.00
2024-02-06T06:20:35.190Z,10.00
2024-02-06T06:23:02.934Z,9.90
2024-02-06T06:25:31.504Z,10.00
2024-02-06T06:28:05.388Z,9.90
2024-02-06T06:30:33.807Z,9.90
2024-02-06T06:33:01.981Z,9.90
2024-02-06T06:35:29.527Z,9.90
2024-02-06T06:37:57.162Z,10.00
2024-02-06T06:40:28.145Z,10.00
2024-02-06T06:42:56.281Z,10.00
2024-02-06T06:45:23.936Z,10.00
2024-02-06T06:47:52.041Z,9.90
2024-02-06T06:50:19.935Z,9.90
2024-02-06T06:52:48.287Z,9.90
2024-02-06T06:55:16.129Z,9.90
2024-02-06T06:57:44.510Z,9.80
2024-02-06T07:00:13.080Z,9.80
2024-02-06T07:02:40.882Z,9.80
2024-02-06T07:05:11.342Z,9.80
2024-02-06T07:07:39.540Z,9.80
2024-02-06T07:10:08.316Z,9.80
2024-02-06T07:12:36.140Z,9.80
2024-02-06T07:15:05.184Z,9.80
2024-02-06T07:17:33.933Z,9.80
2024-02-06T07:20:01.776Z,9.80
2024-02-06T07:22:34.640Z,9.80
2024-02-06T07:25:03.784Z,9.80
2024-02-06T07:27:33.189Z,9.80
2024-02-06T07:30:03.641Z,9.80
2024-02-06T07:32:32.947Z,9.80
2024-02-06T07:35:01.692Z,9.80
2024-02-06T07:37:29.760Z,9.80
2024-02-06T07:39:58.228Z,9.80
2024-02-06T07:42:25.965Z,9.90
2024-02-06T07:44:53.816Z,9.90
2024-02-06T07:47:21.737Z,10.00
2024-02-06T07:49:50.386Z,10.00
2024-02-06T07:52:18.088Z,10.10
2024-02-06T07:54:46.829Z,10.10
2024-02-06T07:57:15.207Z,10.10
2024-02-06T07:59:43.040Z,10.10
2024-02-06T08:02:10.890Z,10.10
2024-02-06T08:04:39.216Z,10.20
2024-02-06T08:07:07.074Z,10.20
2024-02-06T08:09:35.238Z,10.20
2024-02-06T08:12:07.054Z,10.20
2024-02-06T08:14:35.779Z,10.30
2024-02-06T08:17:03.490Z,10.30
2024-02-06T08:19:32.156Z,10.30
2024-02-06T08:22:00.241Z,10.30
2024-02-06T08:24:28.459Z,10.30
2024-02-06T08:26:56.374Z,10.30
2024-02-06T08:29:24.173Z,10.40
2024-02-06T08:31:52.606Z,10.40
2024-02-06T08:34:21.826Z,10.40
2024-02-06T08:36:50.791Z,10.40
2024-02-06T08:39:18.672Z,10.40
2024-02-06T08:41:47.338Z,10.40
2024-02-06T08:44:14.958Z,10.40
2024-02-06T08:46:43.105Z,10.40
2024-02-06T08:49:11.259Z,10.40
2024-02-06T08:51:39.505Z,10.40
2024-02-06T08:54:08.148Z,10.40
2024-02-06T08:56:35.936Z,10.40
2024-02-06T08:59:05.448Z,10.40
2024-02-06T09:01:33.425Z,10.40
2024-02-06T09:04:04.486Z,10.50
2024-02-06T09:06:34.786Z,10.50
2024-02-06T09:09:05.276Z,10.40
2024-02-06T09:11:33.942Z,10.40
2024-02-06T09:14:02.438Z,10.30
2024-02-06T09:16:30.340Z,10.30
2024-02-06T09:18:59.755Z,10.30
2024-02-06T09:21:28.380Z,10.30
2024-02-06T09:23:56.341Z,10.30
2024-02-06T09:26:25.106Z,10.20
2024-02-06T09:28:52.770Z,10.20
2024-02-06T09:31:22.972Z,10.10
2024-02-06T09:33:52.328Z,10.10
2024-02-06T09:36:23.631Z,10.10
2024-02-06T09:38:51.984Z,10.10
2024-02-06T09:41:23.457Z,10.10
2024-02-06T09:43:53.435Z,10.10
2024-02-06T09:46:23.737Z,10.10
2024-02-06T09:48:52.524Z,10.20
2024-02-06T09:51:22.219Z,10.20
2024-02-06T09:53:51.473Z,10.30
2024-02-06T09:56:20.972Z,10.30
2024-02-06T09:58:49.622Z,10.30
2024-02-06T10:01:18.790Z,10.30
2024-02-06T10:03:51.561Z,10.30
2024-02-06T10:06:25.337Z,10.30
2024-02-06T10:08:54.532Z,10.30
2024-02-06T10:11:22.585Z,10.30
2024-02-06T10:13:50.535Z,10.30
2024-02-06T10:16:18.347Z,10.30
2024-02-06T10:18:56.463Z,10.30
2024-02-06T10:21:27.523Z,10.40
2024-02-06T10:24:03.087Z,10.30
2024-02-06T10:26:31.423Z,10.40
2024-02-06T10:29:07.657Z,10.40
2024-02-06T10:31:36.600Z,10.40
2024-02-06T10:34:09.314Z,10.50
2024-02-06T10:36:39.283Z,10.50
2024-02-06T10:39:10.601Z,10.50
2024-02-06T10:41:59.956Z,10.60
2024-02-06T10:44:32.435Z,10.60
2024-02-06T10:47:04.351Z,10.60
2024-02-06T10:49:33.054Z,10.70
2024-02-06T10:52:05.761Z,10.80
2024-02-06T10:54:35.910Z,10.80
2024-02-06T10:57:08.479Z,10.80
2024-02-06T11:00:00.991Z,10.80
2024-02-06T11:02:33.200Z,10.90
2024-02-06T11:05:08.817Z,11.00
2024-02-06T11:07:44.072Z,11.10
2024-02-06T11:10:17.421Z,11.20
2024-02-06T11:12:47.556Z,11.30
2024-02-06T11:15:17.654Z,11.30
2024-02-06T11:17:47.814Z,11.30
2024-02-06T11:20:20.976Z,11.30
2024-02-06T11:22:54.085Z,11.30
2024-02-06T11:25:30.269Z,11.40
2024-02-06T11:28:04.835Z,11.50
2024-02-06T11:30:38.236Z,11.60
2024-02-06T11:33:11.723Z,11.70
2024-02-06T11:35:43.580Z,11.80
2024-02-06T11:38:15.018Z,12.00
2024-02-06T11:40:46.144Z,12.10
2024-02-06T11:43:17.320Z,12.10
2024-02-06T11:45:50.682Z,12.10
2024-02-06T11:48:27.443Z,12.10
2024-02-06T11:50:59.670Z,12.20
2024-02-06T11:53:30.909Z,12.20
2024-02-06T11:56:02.329Z,12.20
2024-02-06T11:58:36.710Z,12.20
2024-02-06T12:01:08.400Z,12.20
2024-02-06T12:03:37.642Z,12.20
2024-02-06T12:06:06.182Z,12.10
2024-02-06T12:08:36.697Z,12.10
2024-02-06T12:11:06.441Z,12.10
2024-02-06T12:13:38.591Z,12.10
2024-02-06T12:16:09.297Z,12.10
2024-02-06T12:18:40.454Z,12.00
2024-02-06T12:21:09.401Z,12.00
2024-02-06T12:23:40.086Z,12.10
2024-02-06T12:26:08.794Z,12.10
2024-02-06T12:28:37.730Z,12.20
2024-02-06T12:31:07.377Z,12.10
2024-02-06T12:33:37.944Z,12.10
2024-02-06T12:36:06.813Z,12.00
2024-02-06T12:38:35.755Z,11.90
2024-02-06T12:41:04.999Z,11.80
2024-02-06T12:43:33.833Z,11.70
2024-02-06T12:46:03.423Z,11.60
2024-02-06T12:48:31.975Z,11.50
2024-02-06T12:51:04.636Z,11.40
2024-02-06T12:53:33.595Z,11.40
2024-02-06T12:56:03.470Z,11.40
2024-02-06T12:58:34.035Z,11.30
2024-02-06T13:01:02.569Z,11.30
2024-02-06T13:03:36.183Z,11.20
2024-02-06T13:06:04.326Z,11.20
2024-02-06T13:08:33.375Z,11.20
2024-02-06T13:11:11.290Z,11.10
2024-02-06T13:13:43.380Z,11.10
2024-02-06T13:16:16.604Z,11.10
2024-02-06T13:18:45.767Z,11.00
2024-02-06T13:21:14.287Z,11.10
2024-02-06T13:23:42.179Z,11.10
2024-02-06T13:26:11.605Z,11.10
2024-02-06T13:28:39.793Z,11.10
2024-02-06T13:31:09.156Z,11.10
2024-02-06T13:33:37.336Z,11.10
2024-02-06T13:36:06.395Z,11.10
2024-02-06T13:38:35.268Z,11.10
2024-02-06T13:41:04.272Z,10.50
2024-02-06T13:43:32.631Z,10.10
2024-02-06T13:46:01.467Z,9.70
2024-02-06T13:48:29.844Z,9.30
2024-02-06T13:50:58.486Z,9.00
2024-02-06T13:53:27.197Z,8.70
2024-02-06T13:55:54.890Z,8.40
2024-02-06T13:58:24.248Z,8.30
2024-02-06T14:00:52.241Z,8.20
2024-02-06T14:03:21.094Z,8.10
2024-02-06T14:05:49.501Z,8.00
2024-02-06T14:08:17.370Z,7.90
2024-02-06T14:10:45.388Z,7.80
2024-02-06T14:13:14.957Z,7.80
2024-02-06T14:15:42.773Z,7.70
2024-02-06T14:18:10.757Z,7.70
2024-02-06T14:20:38.595Z,7.60
2024-02-06T14:23:06.452Z,7.60
2024-02-06T14:25:33.986Z,7.50
2024-02-06T14:28:01.751Z,7.50
2024-02-06T14:30:29.408Z,7.40
2024-02-06T14:33:01.003Z,7.30
2024-02-06T14:35:29.052Z,7.30
2024-02-06T14:37:57.296Z,7.30
2024-02-06T14:40:26.234Z,7.20
2024-02-06T14:42:54.399Z,7.20
2024-02-06T14:45:23.290Z,7.10
2024-02-06T14:47:51.564Z,7.10
2024-02-06T14:50:19.582Z,7.10
2024-02-06T14:52:47.494Z,7.00
2024-02-06T14:55:16.389Z,6.80
2024-02-06T14:57:44.733Z,6.70
2024-02-06T15:00:14.474Z,6.50
2024-02-06T15:02:43.211Z,6.40
2024-02-06T15:05:12.094Z,6.30
2024-02-06T15:07:41.903Z,6.30
2024-02-06T15:10:13.671Z,6.30
2024-02-06T15:12:42.513Z,6.20
2024-02-06T15:15:11.349Z,6.20
2024-02-06T15:17:38.960Z,6.10
2024-02-06T15:20:12.580Z,6.10
2024-02-06T15:22:40.644Z,6.10
2024-02-06T15:25:10.070Z,6.00
2024-02-06T15:27:37.721Z,6.00
2024-02-06T15:30:06.164Z,6.00
2024-02-06T15:32:34.495Z,6.00
2024-02-06T15:35:02.853Z,5.90
2024-02-06T15:37:30.963Z,5.90
2024-02-06T15:39:58.574Z,5.90
2024-02-06T15:42:26.384Z,5.90
2024-02-06T15:44:55.169Z,5.90
2024-02-06T15:47:23.691Z,5.80
2024-02-06T15:49:51.605Z,5.80
2024-02-06T15:52:20.482Z,5.80
2024-02-06T15:54:48.987Z,5.80
2024-02-06T15:57:18.958Z,5.70
2024-02-06T15:59:48.598Z,5.70
2024-02-06T16:02:16.630Z,5.70
2024-02-06T16:04:44.757Z,5.70
2024-02-06T16:07:15.653Z,5.70
2024-02-06T16:09:43.509Z,5.70
2024-02-06T16:12:11.226Z,5.60
2024-02-06T16:14:39.101Z,5.60
2024-02-06T16:17:07.544Z,5.50
2024-02-06T16:19:40.476Z,5.50
2024-02-06T16:22:08.576Z,5.50
2024-02-06T16:24:36.537Z,5.50
2024-02-06T16:27:04.627Z,5.50
2024-02-06T16:29:32.803Z,5.50
2024-02-06T16:32:01.410Z,5.50
2024-02-06T16:34:38.163Z,5.50
2024-02-06T16:37:09.116Z,5.50
2024-02-06T16:39:37.514Z,5.50
2024-02-06T16:42:05.878Z,5.40
2024-02-06T16:44:34.192Z,5.40
2024-02-06T16:47:03.107Z,5.40
2024-02-06T16:49:31.411Z,5.40
2024-02-06T16:51:59.322Z,5.40
2024-02-06T16:54:27.361Z,5.40
2024-02-06T16:56:55.306Z,5.40
2024-02-06T16:59:22.883Z,5.40
2024-02-06T17:01:50.639Z,5.40
2024-02-06T17:04:18.373Z,5.40
2024-02-06T17:06:46.266Z,5.40
2024-02-06T17:09:13.932Z,5.40
2024-02-06T17:11:45.446Z,5.40
2024-02-06T17:14:14.052Z,5.40
2024-02-06T17:16:42.903Z,5.40
2024-02-06T17:19:10.550Z,5.40
2024-02-06T17:21:38.337Z,5.30
2024-02-06T17:24:06.413Z,5.40
2024-02-06T17:26:33.867Z,5.40
2024-02-06T17:29:02.176Z,5.30
2024-02-06T17:31:29.912Z,5.40
2024-02-06T17:33:57.568Z,5.40
2024-02-06T17:36:26.256Z,5.30
2024-02-06T17:38:54.246Z,5.40
2024-02-06T17:41:21.679Z,5.30
2024-02-06T17:43:49.828Z,5.30
2024-02-06T17:46:18.359Z,5.40
2024-02-06T17:48:46.289Z,5.30
2024-02-06T17:51:13.928Z,5.30
2024-02-06T17:53:41.483Z,5.30
2024-02-06T17:56:09.397Z,5.30
2024-02-06T17:58:37.844Z,5.30
2024-02-06T18:01:06.800Z,5.30
2024-02-06T18:03:34.590Z,5.30
2024-02-06T18:06:02.335Z,5.30
2024-02-06T18:08:30.253Z,5.30
2024-02-06T18:10:58.040Z,5.30
2024-02-06T18:13:25.796Z,5.30
2024-02-06T18:15:54.650Z,5.30
2024-02-06T18:18:23.417Z,5.30
2024-02-06T18:20:51.444Z,5.30
2024-02-06T18:23:19.089Z,5.30
2024-02-06T18:25:47.424Z,5.20
2024-02-06T18:28:15.456Z,5.20
2024-02-06T18:30:44.401Z,5.10
2024-02-06T18:33:12.063Z,5.10
2024-02-06T18:35:39.668Z,5.10
2024-02-06T18:38:07.237Z,5.00
2024-02-06T18:40:36.592Z,4.90
2024-02-06T18:43:04.492Z,4.90
2024-02-06T18:45:32.386Z,4.90
2024-02-06T18:48:00.161Z,4.90
2024-02-06T18:50:28.631Z,4.90
2024-02-06T18:53:00.917Z,4.80
2024-02-06T18:55:28.965Z,4.80
2024-02-06T18:57:56.555Z,4.70
2024-02-06T19:00:24.166Z,4.70
2024-02-06T19:02:51.646Z,4.70
2024-02-06T19:05:20.466Z,4.60
2024-02-06T19:07:49.620Z,4.60
2024-02-06T19:10:17.323Z,4.60
2024-02-06T19:12:44.824Z,4.60
2024-02-06T19:15:13.117Z,4.60
2024-02-06T19:17:40.769Z,4.60
2024-02-06T19:20:09.309Z,4.60
2024-02-06T19:22:37.613Z,4.60
2024-02-06T19:25:05.389Z,4.60
2024-02-06T19:27:33.513Z,4.60
2024-02-06T19:30:01.096Z,4.60
2024-02-06T19:32:28.803Z,4.60
2024-02-06T19:34:57.072Z,4.60
2024-02-06T19:37:24.883Z,4.60
2024-02-06T19:39:53.169Z,4.60
2024-02-06T19:42:21.131Z,4.60
2024-02-06T19:44:48.640Z,4.60
2024-02-06T19:47:16.414Z,4.60
2024-02-06T19:49:44.446Z,4.60
2024-02-06T19:52:12.623Z,4.60
2024-02-06T19:54:40.487Z,4.60
2024-02-06T19:57:08.173Z,4.60
2024-02-06T19:59:36.045Z,4.70
2024-02-06T20:02:04.277Z,4.70
2024-02-06T20:04:32.153Z,4.60
2024-02-06T20:07:00.063Z,4.60
2024-02-06T20:09:28.902Z,4.60
2024-02-06T20:11:57.391Z,4.70
2024-02-06T20:14:28.212Z,4.70
2024-02-06T20:16:56.483Z,4.70
2024-02-06T20:19:29.735Z,4.70
2024-02-06T20:21:57.737Z,4.80
2024-02-06T20:24:25.118Z,4.70
2024-02-06T20:26:53.059Z,4.70
2024-02-06T20:29:22.723Z,4.70
2024-02-06T20:31:51.289Z,4.80
2024-02-06T20:34:20.842Z,4.70
2024-02-06T20:36:49.562Z,4.70
2024-02-06T20:39:17.902Z,4.70
2024-02-06T20:41:45.544Z,4.70
2024-02-06T20:44:13.836Z,4.70
2024-02-06T20:46:41.631Z,4.70
2024-02-06T20:49:09.918Z,4.60
2024-02-06T20:51:37.681Z,4.70
2024-02-06T20:54:05.407Z,4.70
2024-02-06T20:56:33.104Z,4.70
2024-02-06T20:59:01.274Z,4.70
2024-02-06T21:01:29.004Z,4.70
2024-02-06T21:03:56.846Z,4.70
2024-02-06T21:06:26.660Z,4.70
2024-02-06T21:08:54.575Z,4.70
2024-02-06T21:11:22.451Z,4.70
2024-02-06T21:13:50.131Z,4.70
2024-02-06T21:16:17.786Z,4.70
2024-02-06T21:18:45.394Z,4.70
2024-02-06T21:21:13.070Z,4.70
2024-02-06T21:23:41.168Z,4.70
2024-02-06T21:26:08.747Z,4.80
2024-02-06T21:28:37.286Z,4.80
2024-02-06T21:31:05.391Z,4.80
2024-02-06T21:33:34.855Z,4.80
2024-02-06T21:36:02.806Z,4.80
2024-02-06T21:38:30.572Z,4.80
2024-02-06T21:40:59.331Z,4.70
2024-02-06T21:43:31.063Z,4.70
2024-02-06T21:46:00.848Z,4.70
2024-02-06T21:48:29.302Z,4.70
2024-02-06T21:50:56.906Z,4.60
2024-02-06T21:53:26.569Z,4.60
2024-02-06T21:56:01.989Z,4.60
2024-02-06T21:58:34.126Z,4.60
2024-02-06T22:01:05.017Z,4.50
2024-02-06T22:03:32.939Z,4.50
2024-02-06T22:06:01.478Z,4.50
2024-02-06T22:08:29.136Z,4.40
2024-02-06T22:10:56.908Z,4.40
2024-02-06T22:13:25.904Z,4.40
2024-02-06T22:15:54.487Z,4.40
2024-02-06T22:18:22.361Z,4.40
2024-02-06T22:20:50.046Z,4.40
2024-02-06T22:23:18.257Z,4.30
2024-02-06T22:25:46.487Z,4.30
2024-02-06T22:28:14.339Z,4.30
2024-02-06T22:30:43.235Z,4.30
2024-02-06T22:33:11.078Z,4.30
2024-02-06T22:35:39.607Z,4.30
2024-02-06T22:38:07.387Z,4.30
2024-02-06T22:40:34.977Z,4.20
2024-02-06T22:43:03.526Z,4.20
2024-02-06T22:45:32.304Z,4.20
2024-02-06T22:47:59.991Z,4.20
2024-02-06T22:50:27.798Z,4.20
2024-02-06T22:52:55.434Z,4.10
2024-02-06T22:55:23.485Z,4.10
2024-02-06T22:57:51.038Z,4.10
2024-02-06T23:00:31.477Z,4.10
2024-02-06T23:02:59.436Z,4.10
2024-02-06T23:05:27.792Z,4.00
2024-02-06T23:07:57.059Z,4.00
2024-02-06T23:10:25.855Z,4.00
2024-02-06T23:12:54.569Z,4.00
2024-02-06T23:15:22.580Z,4.00
2024-02-06T23:17:50.700Z,4.00
2024-02-06T23:20:18.993Z,4.00
2024-02-06T23:22:46.948Z,4.00
2024-02-06T23:25:15.369Z,4.00
2024-02-06T23:27:43.457Z,3.90
2024-02-06T23:30:13.561Z,3.90
2024-02-06T23:32:42.474Z,3.90
2024-02-06T23:35:10.533Z,3.90
2024-02-06T23:37:38.545Z,3.90
2024-02-06T23:40:10.094Z,3.80
2024-02-06T23:42:38.510Z,3.80
2024-02-06T23:45:07.536Z,3.80
2024-02-06T23:47:35.351Z,3.80
2024-02-06T23:50:03.692Z,3.80
2024-02-06T23:52:31.457Z,3.70
2024-02-06T23:54:59.390Z,3.70
2024-02-06T23:57:27.031Z,3.60
2024-02-06T23:59:55.450Z,3.50
